createdAt,value
2023-04-17T00:00:17.228Z,12.50
2023-04-17T00:00:51.105Z,12.50
2023-04-17T00:01:22.873Z,12.50
2023-04-17T00:01:55.485Z,13.40
2023-04-17T00:02:29.961Z,12.20
2023-04-17T00:03:01.955Z,13.10
2023-04-17T00:03:34.116Z,13.70
2023-04-17T00:04:11.154Z,12.40
2023-04-17T00:04:43.663Z,12.40
2023-04-17T00:05:16.915Z,13.70
2023-04-17T00:05:48.887Z,12.40
2023-04-17T00:06:20.629Z,12.90
2023-04-17T00:06:53.950Z,12.40
2023-04-17T00:07:28.276Z,12.40
2023-04-17T00:08:00.078Z,12.40
2023-04-17T00:08:32.666Z,12.40
2023-04-17T00:09:04.851Z,12.30
2023-04-17T00:09:36.826Z,11.70
2023-04-17T00:10:10.106Z,12.40
2023-04-17T00:10:41.879Z,12.40
2023-04-17T00:11:13.818Z,12.40
2023-04-17T00:11:45.635Z,13.60
2023-04-17T00:12:17.520Z,13.40
2023-04-17T00:12:49.357Z,12.40
2023-04-17T00:13:21.209Z,13.30
2023-04-17T00:13:52.960Z,13.10
2023-04-17T00:14:25.240Z,12.90
2023-04-17T00:14:56.961Z,13.60
2023-04-17T00:15:28.752Z,13.20
2023-04-17T00:16:00.624Z,12.40
2023-04-17T00:16:32.558Z,12.40
2023-04-17T00:17:04.354Z,12.40
2023-04-17T00:17:36.138Z,12.40
2023-04-17T00:18:07.946Z,13.00
2023-04-17T00:18:40.351Z,12.40
2023-04-17T00:19:12.253Z,12.40
2023-04-17T00:19:44.227Z,13.20
2023-04-17T00:20:16.067Z,12.30
2023-04-17T00:20:47.888Z,12.60
2023-04-17T00:21:20.088Z,13.20
2023-04-17T00:21:51.911Z,12.30
2023-04-17T00:22:23.895Z,12.30
2023-04-17T00:22:55.642Z,12.40
2023-04-17T00:23:27.668Z,12.30
2023-04-17T00:23:59.506Z,12.30
2023-04-17T00:24:31.286Z,12.30
2023-04-17T00:25:03.551Z,13.30
2023-04-17T00:25:35.372Z,12.30
2023-04-17T00:26:07.106Z,12.40
2023-04-17T00:26:39.225Z,12.30
2023-04-17T00:27:11.060Z,12.30
2023-04-17T00:27:42.927Z,12.30
2023-04-17T00:28:14.874Z,13.10
2023-04-17T00:28:50.349Z,12.30
2023-04-17T00:29:22.117Z,12.30
2023-04-17T00:29:53.963Z,10.40
2023-04-17T00:30:26.049Z,12.30
2023-04-17T00:30:58.872Z,12.40
2023-04-17T00:31:30.795Z,12.30
2023-04-17T00:32:02.799Z,12.30
2023-04-17T00:32:34.690Z,12.40
2023-04-17T00:33:06.533Z,12.30
2023-04-17T00:33:39.142Z,13.10
2023-04-17T00:34:10.885Z,13.10
2023-04-17T00:34:42.725Z,12.30
2023-04-17T00:35:14.977Z,13.40
2023-04-17T00:35:46.862Z,12.30
2023-04-17T00:36:18.723Z,12.40
2023-04-17T00:36:50.532Z,12.30
2023-04-17T00:37:22.345Z,12.30
2023-04-17T00:37:54.313Z,15.20
2023-04-17T00:38:26.269Z,12.30
2023-04-17T00:38:58.832Z,12.30
2023-04-17T00:39:30.665Z,12.20
2023-04-17T00:40:03.481Z,12.30
2023-04-17T00:40:35.970Z,12.30
2023-04-17T00:41:07.869Z,12.30
2023-04-17T00:41:39.681Z,12.30
2023-04-17T00:42:12.786Z,12.30
2023-04-17T00:42:46.123Z,12.30
2023-04-17T00:43:18.259Z,12.30
2023-04-17T00:43:51.796Z,12.30
2023-04-17T00:44:23.576Z,12.30
2023-04-17T00:44:55.474Z,12.20
2023-04-17T00:45:27.447Z,13.40
2023-04-17T00:45:59.720Z,12.20
2023-04-17T00:46:32.078Z,13.10
2023-04-17T00:47:04.116Z,12.70
2023-04-17T00:47:36.075Z,12.20
2023-04-17T00:48:10.771Z,12.20
2023-04-17T00:48:44.190Z,12.40
2023-04-17T00:49:16.065Z,12.20
2023-04-17T00:49:48.698Z,15.40
2023-04-17T00:50:20.740Z,12.20
2023-04-17T00:50:53.768Z,12.20
2023-04-17T00:51:25.796Z,12.20
2023-04-17T00:51:58.293Z,12.20
2023-04-17T00:52:31.282Z,12.20
2023-04-17T00:53:03.549Z,12.20
2023-04-17T00:53:36.547Z,12.50
2023-04-17T00:54:09.427Z,12.70
2023-04-17T00:54:41.761Z,12.20
2023-04-17T00:55:15.388Z,12.20
2023-04-17T00:55:50.985Z,12.20
2023-04-17T00:56:23.001Z,12.20
2023-04-17T00:56:57.706Z,12.20
2023-04-17T00:57:31.293Z,12.20
2023-04-17T00:58:03.818Z,8.70
2023-04-17T00:58:37.592Z,13.60
2023-04-17T00:59:13.245Z,12.20
2023-04-17T00:59:47.665Z,12.20
2023-04-17T01:00:19.483Z,12.20
2023-04-17T01:00:51.986Z,12.20
2023-04-17T01:01:24.261Z,12.20
2023-04-17T01:01:56.239Z,12.10
2023-04-17T01:02:28.798Z,12.20
2023-04-17T01:03:00.918Z,12.10
2023-04-17T01:03:33.584Z,12.20
2023-04-17T01:04:06.562Z,12.20
2023-04-17T01:04:38.541Z,12.20
2023-04-17T01:05:10.713Z,12.20
2023-04-17T01:05:47.456Z,12.20
2023-04-17T01:06:19.886Z,12.50
2023-04-17T01:06:53.552Z,12.20
2023-04-17T01:07:26.170Z,12.40
2023-04-17T01:07:58.661Z,12.10
2023-04-17T01:08:44.220Z,12.10
2023-04-17T01:09:16.721Z,12.10
2023-04-17T01:09:48.484Z,12.10
2023-04-17T01:10:20.244Z,12.50
2023-04-17T01:10:52.031Z,12.60
2023-04-17T01:11:23.978Z,12.10
2023-04-17T01:12:17.954Z,12.90
2023-04-17T01:13:08.952Z,12.10
2023-04-17T01:13:50.680Z,12.10
2023-04-17T01:14:22.880Z,12.10
2023-04-17T01:14:56.458Z,12.10
2023-04-17T01:15:28.393Z,12.10
2023-04-17T01:16:00.224Z,12.10
2023-04-17T01:16:32.622Z,12.10
2023-04-17T01:17:05.858Z,12.10
2023-04-17T01:17:37.679Z,13.10
2023-04-17T01:18:09.564Z,12.60
2023-04-17T01:18:41.745Z,12.10
2023-04-17T01:19:15.889Z,13.10
2023-04-17T01:19:49.610Z,12.10
2023-04-17T01:20:21.530Z,12.00
2023-04-17T01:20:53.294Z,12.10
2023-04-17T01:21:25.109Z,13.10
2023-04-17T01:21:57.588Z,12.10
2023-04-17T01:22:29.485Z,12.10
2023-04-17T01:23:03.461Z,12.10
2023-04-17T01:23:52.065Z,12.70
2023-04-17T01:24:24.736Z,12.10
2023-04-17T01:24:56.663Z,14.90
2023-04-17T01:25:31.149Z,13.00
2023-04-17T01:26:02.979Z,12.10
2023-04-17T01:26:35.739Z,13.40
2023-04-17T01:27:07.811Z,12.00
2023-04-17T01:27:43.418Z,12.10
2023-04-17T01:28:15.607Z,12.10
2023-04-17T01:28:51.684Z,12.10
2023-04-17T01:29:23.850Z,12.10
2023-04-17T01:29:56.029Z,12.10
2023-04-17T01:30:27.870Z,12.00
2023-04-17T01:31:04.618Z,12.00
2023-04-17T01:31:36.424Z,12.00
2023-04-17T01:32:08.590Z,12.00
2023-04-17T01:32:40.447Z,12.10
2023-04-17T01:33:12.369Z,12.10
2023-04-17T01:33:44.160Z,12.00
2023-04-17T01:34:16.201Z,12.00
2023-04-17T01:34:48.007Z,12.00
2023-04-17T01:35:20.086Z,12.00
2023-04-17T01:35:51.887Z,12.00
2023-04-17T01:36:23.849Z,12.00
2023-04-17T01:36:55.713Z,12.40
2023-04-17T01:37:27.685Z,12.00
2023-04-17T01:38:00.005Z,12.00
2023-04-17T01:38:32.317Z,12.00
2023-04-17T01:39:04.181Z,12.40
2023-04-17T01:39:37.070Z,12.00
2023-04-17T01:40:09.704Z,12.80
2023-04-17T01:40:41.515Z,12.00
2023-04-17T01:41:13.334Z,12.10
2023-04-17T01:41:45.358Z,12.80
2023-04-17T01:42:17.427Z,12.00
2023-04-17T01:42:49.180Z,15.60
2023-04-17T01:43:21.291Z,12.00
2023-04-17T01:43:53.040Z,12.00
2023-04-17T01:44:24.955Z,12.00
2023-04-17T01:44:56.687Z,12.00
2023-04-17T01:45:28.461Z,12.00
2023-04-17T01:46:00.421Z,12.00
2023-04-17T01:46:32.949Z,12.00
2023-04-17T01:47:04.809Z,12.00
2023-04-17T01:47:36.729Z,12.00
2023-04-17T01:48:08.504Z,12.70
2023-04-17T01:48:40.739Z,12.00
2023-04-17T01:49:13.605Z,12.00
2023-04-17T01:49:45.406Z,12.00
2023-04-17T01:50:17.442Z,9.40
2023-04-17T01:50:49.215Z,11.90
2023-04-17T01:51:20.990Z,12.00
2023-04-17T01:51:54.117Z,12.00
2023-04-17T01:52:25.913Z,12.00
2023-04-17T01:52:57.718Z,12.90
2023-04-17T01:53:33.405Z,12.00
2023-04-17T01:54:05.685Z,11.90
2023-04-17T01:54:37.650Z,11.90
2023-04-17T01:55:09.901Z,12.00
2023-04-17T01:55:41.671Z,11.90
2023-04-17T01:56:13.860Z,11.90
2023-04-17T01:56:45.981Z,11.90
2023-04-17T01:57:17.732Z,12.50
2023-04-17T01:57:49.877Z,12.10
2023-04-17T01:58:21.695Z,11.90
2023-04-17T01:58:54.056Z,11.90
2023-04-17T01:59:25.930Z,11.90
2023-04-17T01:59:57.710Z,11.90
2023-04-17T02:00:30.084Z,11.80
2023-04-17T02:01:02.292Z,12.70
2023-04-17T02:01:36.176Z,11.90
2023-04-17T02:02:08.079Z,11.90
2023-04-17T02:02:40.423Z,11.90
2023-04-17T02:03:12.507Z,11.90
2023-04-17T02:03:44.613Z,12.60
2023-04-17T02:04:16.868Z,12.80
2023-04-17T02:04:48.676Z,12.70
2023-04-17T02:05:20.876Z,11.90
2023-04-17T02:05:53.746Z,12.50
2023-04-17T02:06:27.290Z,12.20
2023-04-17T02:06:59.167Z,11.90
2023-04-17T02:07:30.937Z,12.40
2023-04-17T02:08:03.159Z,11.90
2023-04-17T02:08:34.982Z,12.10
2023-04-17T02:09:08.854Z,11.90
2023-04-17T02:09:43.845Z,11.90
2023-04-17T02:10:15.734Z,11.90
2023-04-17T02:10:47.506Z,11.90
2023-04-17T02:11:19.270Z,11.90
2023-04-17T02:11:51.023Z,12.90
2023-04-17T02:12:24.051Z,11.90
2023-04-17T02:12:56.180Z,11.90
2023-04-17T02:13:28.010Z,11.90
2023-04-17T02:14:00.145Z,11.90
2023-04-17T02:14:31.873Z,12.50
2023-04-17T02:15:03.891Z,11.90
2023-04-17T02:15:37.147Z,11.90
2023-04-17T02:16:09.669Z,12.10
2023-04-17T02:16:45.666Z,11.80
2023-04-17T02:17:18.262Z,11.80
2023-04-17T02:17:50.108Z,11.90
2023-04-17T02:18:22.043Z,11.80
2023-04-17T02:18:54.155Z,11.80
2023-04-17T02:19:26.103Z,11.80
2023-04-17T02:19:57.912Z,11.80
2023-04-17T02:20:29.797Z,11.80
2023-04-17T02:21:03.106Z,12.00
2023-04-17T02:21:34.953Z,11.80
2023-04-17T02:22:09.422Z,9.50
2023-04-17T02:22:41.222Z,11.80
2023-04-17T02:23:12.993Z,12.60
2023-04-17T02:23:44.937Z,11.80
2023-04-17T02:24:16.772Z,11.80
2023-04-17T02:24:48.560Z,11.80
2023-04-17T02:25:23.282Z,12.80
2023-04-17T02:25:58.231Z,12.70
2023-04-17T02:26:30.003Z,11.90
2023-04-17T02:27:02.985Z,11.80
2023-04-17T02:27:35.298Z,11.80
2023-04-17T02:28:07.202Z,11.80
2023-04-17T02:28:39.874Z,11.80
2023-04-17T02:29:12.371Z,11.80
2023-04-17T02:29:44.362Z,12.70
2023-04-17T02:30:16.161Z,12.10
2023-04-17T02:30:47.925Z,12.50
2023-04-17T02:31:19.691Z,11.80
2023-04-17T02:31:51.592Z,11.80
2023-04-17T02:32:23.371Z,11.80
2023-04-17T02:32:56.143Z,11.80
2023-04-17T02:33:28.050Z,11.70
2023-04-17T02:33:59.830Z,11.80
2023-04-17T02:34:32.142Z,11.80
2023-04-17T02:35:04.158Z,11.80
2023-04-17T02:35:36.816Z,11.70
2023-04-17T02:36:08.987Z,11.80
2023-04-17T02:36:44.269Z,11.80
2023-04-17T02:37:16.368Z,14.30
2023-04-17T02:37:48.284Z,11.80
2023-04-17T02:38:20.169Z,11.70
2023-04-17T02:38:52.023Z,11.80
2023-04-17T02:39:24.397Z,11.70
2023-04-17T02:39:56.214Z,11.90
2023-04-17T02:40:28.001Z,11.70
2023-04-17T02:41:06.145Z,11.80
2023-04-17T02:41:38.804Z,12.50
2023-04-17T02:42:12.934Z,11.70
2023-04-17T02:42:46.204Z,11.70
2023-04-17T02:43:18.538Z,12.00
2023-04-17T02:43:50.335Z,11.70
2023-04-17T02:44:23.118Z,13.40
2023-04-17T02:44:54.921Z,12.10
2023-04-17T02:45:27.622Z,11.70
2023-04-17T02:45:59.373Z,13.30
2023-04-17T02:46:32.296Z,12.60
2023-04-17T02:47:04.204Z,11.70
2023-04-17T02:47:38.442Z,11.70
2023-04-17T02:48:10.320Z,11.70
2023-04-17T02:48:42.545Z,11.70
2023-04-17T02:49:14.445Z,12.30
2023-04-17T02:49:46.273Z,11.70
2023-04-17T02:50:18.411Z,11.70
2023-04-17T02:51:06.517Z,11.70
2023-04-17T02:51:38.695Z,11.70
2023-04-17T02:52:10.851Z,11.70
2023-04-17T02:52:42.765Z,11.70
2023-04-17T02:53:14.564Z,11.70
2023-04-17T02:53:46.872Z,11.70
2023-04-17T02:54:18.676Z,11.70
2023-04-17T02:54:50.953Z,11.70
2023-04-17T02:55:24.325Z,11.70
2023-04-17T02:55:56.112Z,11.70
2023-04-17T02:56:29.395Z,11.70
2023-04-17T02:57:01.800Z,11.70
2023-04-17T02:57:33.559Z,11.70
2023-04-17T02:58:05.554Z,11.70
2023-04-17T02:58:37.642Z,11.70
2023-04-17T02:59:12.052Z,11.80
2023-04-17T02:59:43.973Z,11.70
2023-04-17T03:00:16.106Z,11.60
2023-04-17T03:00:47.881Z,11.70
2023-04-17T03:01:22.731Z,12.90
2023-04-17T03:01:54.635Z,11.70
2023-04-17T03:02:27.171Z,11.70
2023-04-17T03:02:59.291Z,11.60
2023-04-17T03:03:34.812Z,11.60
2023-04-17T03:04:09.644Z,11.60
2023-04-17T03:04:43.053Z,11.60
2023-04-17T03:05:16.458Z,11.60
2023-04-17T03:05:48.242Z,11.70
2023-04-17T03:06:19.993Z,11.70
2023-04-17T03:06:51.950Z,11.60
2023-04-17T03:07:23.857Z,11.60
2023-04-17T03:07:56.772Z,12.00
2023-04-17T03:08:32.578Z,10.10
2023-04-17T03:09:05.061Z,12.10
2023-04-17T03:09:38.648Z,11.60
2023-04-17T03:10:10.726Z,11.60
2023-04-17T03:10:42.489Z,11.60
2023-04-17T03:11:14.325Z,11.60
2023-04-17T03:11:46.102Z,11.60
2023-04-17T03:12:17.892Z,11.60
2023-04-17T03:12:49.627Z,11.60
2023-04-17T03:13:22.165Z,11.60
2023-04-17T03:13:53.954Z,11.70
2023-04-17T03:14:26.986Z,12.30
2023-04-17T03:14:58.753Z,11.60
2023-04-17T03:15:30.577Z,11.60
2023-04-17T03:16:03.410Z,11.60
2023-04-17T03:16:35.492Z,11.60
2023-04-17T03:17:09.460Z,11.60
2023-04-17T03:17:41.423Z,11.60
2023-04-17T03:18:13.368Z,11.60
2023-04-17T03:18:45.227Z,11.60
2023-04-17T03:19:17.067Z,12.40
2023-04-17T03:19:48.987Z,11.90
2023-04-17T03:20:21.159Z,11.60
2023-04-17T03:20:53.982Z,11.60
2023-04-17T03:21:26.600Z,11.60
2023-04-17T03:21:58.416Z,11.60
2023-04-17T03:22:30.177Z,11.60
2023-04-17T03:23:02.143Z,12.40
2023-04-17T03:23:34.376Z,11.60
2023-04-17T03:24:06.873Z,11.60
2023-04-17T03:24:38.679Z,11.50
2023-04-17T03:25:11.122Z,11.60
2023-04-17T03:25:49.789Z,12.30
2023-04-17T03:26:22.222Z,11.50
2023-04-17T03:26:54.609Z,11.60
2023-04-17T03:27:28.334Z,11.50
2023-04-17T03:28:00.163Z,11.50
2023-04-17T03:28:36.722Z,11.50
2023-04-17T03:29:09.524Z,11.80
2023-04-17T03:29:41.516Z,11.50
2023-04-17T03:30:13.706Z,11.50
2023-04-17T03:30:50.050Z,11.50
2023-04-17T03:31:24.566Z,12.30
2023-04-17T03:31:56.480Z,11.50
2023-04-17T03:32:28.407Z,11.50
2023-04-17T03:33:00.210Z,12.40
2023-04-17T03:33:34.745Z,11.50
2023-04-17T03:34:07.396Z,12.40
2023-04-17T03:34:39.353Z,12.30
2023-04-17T03:35:11.185Z,11.70
2023-04-17T03:35:46.160Z,11.90
2023-04-17T03:36:18.065Z,12.20
2023-04-17T03:36:50.039Z,11.50
2023-04-17T03:37:22.585Z,11.50
2023-04-17T03:37:54.620Z,11.80
2023-04-17T03:38:27.419Z,11.50
2023-04-17T03:38:59.791Z,11.40
2023-04-17T03:39:31.525Z,11.50
2023-04-17T03:40:05.257Z,11.50
2023-04-17T03:40:37.418Z,11.50
2023-04-17T03:41:10.286Z,11.50
2023-04-17T03:41:42.293Z,11.40
2023-04-17T03:42:14.680Z,11.50
2023-04-17T03:42:46.558Z,12.70
2023-04-17T03:43:18.363Z,12.60
2023-04-17T03:43:50.784Z,12.00
2023-04-17T03:44:22.615Z,11.40
2023-04-17T03:44:56.040Z,11.50
2023-04-17T03:45:29.096Z,11.50
2023-04-17T03:46:01.676Z,13.40
2023-04-17T03:46:35.593Z,11.40
2023-04-17T03:47:07.589Z,11.40
2023-04-17T03:47:39.546Z,11.40
2023-04-17T03:48:12.082Z,11.40
2023-04-17T03:48:43.860Z,13.20
2023-04-17T03:49:15.772Z,11.10
2023-04-17T03:49:47.750Z,11.40
2023-04-17T03:50:59.341Z,11.50
2023-04-17T03:51:31.769Z,11.50
2023-04-17T03:52:43.911Z,11.50
2023-04-17T03:53:15.678Z,11.50
2023-04-17T03:54:54.301Z,11.50
2023-04-17T03:55:26.086Z,11.50
2023-04-17T03:55:58.492Z,11.50
2023-04-17T03:56:35.127Z,11.50
2023-04-17T03:59:52.483Z,11.60
2023-04-17T04:01:03.324Z,11.60
2023-04-17T04:07:30.794Z,11.60
2023-04-17T04:08:03.837Z,11.60
2023-04-17T04:08:41.802Z,11.50
2023-04-17T04:14:44.131Z,11.50
2023-04-17T04:22:18.762Z,11.60
2023-04-17T04:24:35.216Z,11.50
2023-04-17T04:28:28.236Z,11.50
2023-04-17T04:29:51.478Z,11.50
2023-04-17T04:46:11.587Z,11.40
2023-04-17T04:46:48.271Z,11.40
2023-04-17T04:49:33.593Z,11.40
2023-04-17T04:50:38.345Z,11.40
2023-04-17T04:51:44.212Z,11.40
2023-04-17T04:52:16.201Z,11.40
2023-04-17T04:55:52.167Z,11.30
2023-04-17T04:56:24.082Z,11.30
2023-04-17T04:57:28.990Z,11.30
2023-04-17T04:58:38.500Z,11.30
2023-04-17T04:59:49.012Z,11.30
2023-04-17T05:01:13.634Z,11.20
2023-04-17T05:02:24.522Z,11.30
2023-04-17T05:02:57.671Z,11.20
2023-04-17T05:03:31.661Z,11.30
2023-04-17T05:04:05.632Z,11.20
2023-04-17T05:04:38.471Z,11.20
2023-04-17T05:06:19.653Z,11.20
2023-04-17T05:06:56.923Z,11.20
2023-04-17T05:07:28.827Z,11.20
2023-04-17T05:09:16.963Z,11.20
2023-04-17T05:10:22.143Z,11.20
2023-04-17T05:10:58.181Z,11.20
2023-04-17T05:12:03.104Z,11.20
2023-04-17T05:14:21.090Z,11.20
2023-04-17T05:14:53.427Z,11.20
2023-04-17T05:15:25.929Z,11.20
2023-04-17T05:17:41.713Z,11.20
2023-04-17T05:18:13.626Z,11.20
2023-04-17T05:21:06.372Z,11.20
2023-04-17T05:21:39.252Z,11.20
2023-04-17T05:22:56.659Z,11.20
2023-04-17T05:24:00.874Z,11.20
2023-04-17T05:24:32.776Z,11.20
2023-04-17T05:25:37.005Z,11.20
2023-04-17T05:26:11.729Z,11.10
2023-04-17T05:26:43.838Z,11.10
2023-04-17T05:27:16.533Z,11.10
2023-04-17T05:27:49.291Z,11.10
2023-04-17T05:28:22.036Z,11.10
2023-04-17T05:28:57.811Z,11.10
2023-04-17T05:30:38.580Z,11.10
2023-04-17T05:31:19.059Z,11.10
2023-04-17T05:31:51.849Z,11.10
2023-04-17T05:32:59.750Z,11.10
2023-04-17T05:33:52.195Z,11.00
2023-04-17T05:34:24.926Z,11.00
2023-04-17T05:34:56.966Z,11.00
2023-04-17T05:51:55.810Z,11.20
2023-04-17T09:55:38.284Z,13.10
2023-04-17T09:56:19.072Z,13.10
2023-04-17T09:56:52.257Z,13.10
2023-04-17T09:57:59.128Z,13.10
2023-04-17T09:58:33.676Z,13.10
2023-04-17T09:59:11.522Z,13.10
2023-04-17T10:00:08.263Z,13.10
2023-04-17T10:01:35.670Z,13.00
2023-04-17T10:02:17.153Z,13.00
2023-04-17T10:03:07.622Z,13.10
2023-04-17T10:03:58.152Z,13.10
2023-04-17T10:04:58.876Z,13.10
2023-04-17T10:05:53.971Z,13.10
2023-04-17T10:06:50.458Z,13.00
2023-04-17T10:07:36.976Z,13.10
2023-04-17T10:08:08.870Z,13.20
2023-04-17T10:10:44.484Z,13.20
2023-04-17T10:11:51.303Z,13.20
2023-04-17T10:12:28.874Z,13.20
2023-04-17T10:13:49.309Z,13.30
2023-04-17T10:14:34.950Z,13.30
2023-04-17T10:15:13.607Z,13.30
2023-04-17T10:15:47.045Z,13.40
2023-04-17T10:16:18.802Z,13.40
2023-04-17T10:16:54.684Z,13.40
2023-04-17T10:17:39.618Z,13.40
2023-04-17T10:18:25.131Z,13.40
2023-04-17T10:19:29.940Z,13.40
2023-04-17T10:20:20.114Z,13.50
2023-04-17T10:20:55.874Z,13.40
2023-04-17T10:21:28.922Z,13.50
2023-04-17T10:22:16.023Z,13.50
2023-04-17T10:22:54.328Z,13.50
2023-04-17T10:24:32.111Z,13.50
2023-04-17T10:25:12.867Z,13.60
2023-04-17T10:26:28.641Z,13.60
2023-04-17T10:27:02.441Z,13.60
2023-04-17T10:27:40.414Z,13.60
2023-04-17T10:29:03.376Z,13.60
2023-04-17T10:29:53.904Z,13.70
2023-04-17T10:30:54.007Z,13.70
2023-04-17T10:32:03.102Z,13.80
2023-04-17T10:32:37.832Z,13.70
2023-04-17T10:33:15.874Z,13.70
2023-04-17T10:34:43.860Z,13.80
2023-04-17T10:35:21.929Z,13.70
2023-04-17T10:35:59.840Z,13.80
2023-04-17T10:36:40.693Z,13.80
2023-04-17T10:37:15.595Z,13.80
2023-04-17T10:38:34.919Z,13.80
2023-04-17T10:39:28.061Z,13.90
2023-04-17T10:40:02.085Z,13.90
2023-04-17T10:40:35.944Z,13.90
2023-04-17T10:41:09.498Z,13.90
2023-04-17T10:42:04.666Z,13.90
2023-04-17T10:42:36.529Z,14.00
2023-04-17T10:43:44.984Z,14.00
2023-04-17T10:44:27.758Z,14.00
2023-04-17T10:45:25.779Z,17.50
2023-04-17T10:46:00.447Z,14.10
2023-04-17T10:46:32.396Z,14.00
2023-04-17T10:48:49.819Z,14.10
2023-04-17T10:49:27.721Z,18.50
2023-04-17T10:50:10.093Z,14.10
2023-04-17T10:50:47.428Z,14.10
2023-04-17T10:51:27.779Z,14.20
2023-04-17T10:51:59.610Z,14.20
2023-04-17T10:52:40.009Z,14.20
2023-04-17T10:53:47.758Z,14.20
2023-04-17T10:54:22.306Z,14.20
2023-04-17T10:55:25.049Z,14.30
2023-04-17T10:55:57.482Z,14.90
2023-04-17T10:56:40.050Z,14.30
2023-04-17T10:57:11.836Z,18.50
2023-04-17T10:58:16.666Z,10.70
2023-04-17T10:59:02.871Z,14.40
2023-04-17T10:59:34.614Z,14.40
2023-04-17T11:00:13.968Z,14.40
2023-04-17T11:00:52.532Z,14.40
2023-04-17T11:01:30.109Z,15.50
2023-04-17T11:02:06.862Z,14.40
2023-04-17T11:02:45.459Z,14.40
2023-04-17T11:03:23.026Z,14.40
2023-04-17T11:04:00.837Z,14.50
2023-04-17T11:04:34.363Z,15.40
2023-04-17T11:05:07.445Z,12.30
2023-04-17T11:05:48.205Z,14.50
2023-04-17T11:06:28.726Z,14.50
2023-04-17T11:07:00.979Z,14.50
2023-04-17T11:07:35.255Z,14.50
2023-04-17T11:08:13.160Z,14.70
2023-04-17T11:08:46.907Z,14.60
2023-04-17T11:09:22.143Z,14.60
2023-04-17T11:09:54.013Z,15.30
2023-04-17T11:10:28.875Z,14.60
2023-04-17T11:11:00.702Z,14.60
2023-04-17T11:11:44.641Z,14.70
2023-04-17T11:12:25.541Z,14.70
2023-04-17T11:13:03.424Z,14.60
2023-04-17T11:13:37.737Z,14.70
2023-04-17T11:14:23.700Z,14.70
2023-04-17T11:15:02.508Z,15.10
2023-04-17T11:15:35.713Z,14.70
2023-04-17T11:16:13.261Z,15.40
2023-04-17T11:16:47.592Z,15.50
2023-04-17T11:17:22.478Z,16.20
2023-04-17T11:17:56.055Z,15.30
2023-04-17T11:18:31.142Z,15.30
2023-04-17T11:19:03.003Z,14.80
2023-04-17T11:19:34.884Z,14.80
2023-04-17T11:20:07.451Z,14.80
2023-04-17T11:20:40.844Z,14.80
2023-04-17T11:21:16.673Z,14.90
2023-04-17T11:21:53.709Z,14.80
2023-04-17T11:22:25.733Z,14.90
2023-04-17T11:23:02.453Z,15.20
2023-04-17T11:23:34.450Z,15.00
2023-04-17T11:25:28.811Z,15.00
2023-04-17T11:26:09.782Z,15.00
2023-04-17T11:26:43.217Z,15.00
2023-04-17T11:27:17.800Z,15.00
2023-04-17T11:27:58.954Z,15.10
2023-04-17T11:28:37.070Z,15.10
2023-04-17T11:29:16.667Z,17.40
2023-04-17T11:29:48.589Z,15.10
2023-04-17T11:30:37.239Z,15.10
2023-04-17T11:31:11.973Z,15.10
2023-04-17T11:31:45.219Z,15.10
2023-04-17T11:32:20.066Z,15.20
2023-04-17T11:32:53.225Z,15.90
2023-04-17T11:33:37.822Z,15.20
2023-04-17T11:34:09.887Z,15.20
2023-04-17T11:34:41.912Z,15.30
2023-04-17T11:35:13.956Z,15.20
2023-04-17T11:35:45.805Z,15.20
2023-04-17T11:36:17.607Z,15.30
2023-04-17T11:36:50.576Z,15.30
2023-04-17T11:37:22.362Z,15.50
2023-04-17T11:38:12.582Z,15.30
2023-04-17T11:39:06.578Z,15.30
2023-04-17T11:39:43.048Z,15.30
2023-04-17T11:40:15.336Z,15.30
2023-04-17T11:40:53.878Z,15.40
2023-04-17T11:41:38.996Z,15.40
2023-04-17T11:42:10.828Z,15.40
2023-04-17T11:42:48.924Z,15.40
2023-04-17T11:43:27.467Z,15.40
2023-04-17T11:44:01.251Z,15.40
2023-04-17T11:44:32.995Z,15.40
2023-04-17T11:45:07.286Z,15.40
2023-04-17T11:45:44.820Z,15.40
2023-04-17T11:46:19.419Z,15.40
2023-04-17T11:46:55.566Z,15.40
2023-04-17T11:47:27.610Z,15.50
2023-04-17T11:47:59.554Z,15.40
2023-04-17T11:48:34.779Z,15.80
2023-04-17T11:49:07.561Z,15.50
2023-04-17T11:49:39.936Z,15.50
2023-04-17T11:50:14.715Z,15.60
2023-04-17T11:50:46.522Z,15.80
2023-04-17T11:51:21.694Z,15.60
2023-04-17T11:51:54.742Z,15.50
2023-04-17T11:52:28.954Z,15.60
2023-04-17T11:53:02.282Z,15.60
2023-04-17T11:53:36.238Z,15.60
2023-04-17T11:54:07.996Z,15.60
2023-04-17T11:54:39.876Z,15.60
2023-04-17T11:55:14.465Z,16.00
2023-04-17T11:55:46.339Z,15.60
2023-04-17T11:56:21.933Z,15.60
2023-04-17T11:57:02.783Z,15.60
2023-04-17T11:57:51.970Z,15.70
2023-04-17T11:58:24.022Z,15.60
2023-04-17T11:59:00.069Z,15.70
2023-04-17T11:59:37.728Z,15.70
2023-04-17T12:00:20.028Z,16.00
2023-04-17T12:01:06.172Z,15.70
2023-04-17T12:01:52.135Z,15.90
2023-04-17T12:02:35.864Z,14.90
2023-04-17T12:03:31.149Z,15.70
2023-04-17T12:04:21.604Z,15.70
2023-04-17T12:05:13.725Z,15.80
2023-04-17T12:05:59.160Z,15.70
2023-04-17T12:06:37.882Z,15.80
2023-04-17T12:07:22.894Z,15.80
2023-04-17T12:08:02.653Z,15.80
2023-04-17T12:08:53.270Z,15.80
2023-04-17T12:09:31.608Z,15.80
2023-04-17T12:10:03.741Z,15.80
2023-04-17T12:10:40.592Z,15.80
2023-04-17T12:11:25.054Z,15.90
2023-04-17T12:11:58.294Z,15.80
2023-04-17T12:12:31.069Z,15.80
2023-04-17T12:13:02.908Z,15.80
2023-04-17T12:13:35.461Z,15.80
2023-04-17T12:14:12.088Z,15.80
2023-04-17T12:14:44.229Z,15.80
2023-04-17T12:15:24.931Z,15.80
2023-04-17T12:15:57.629Z,15.80
2023-04-17T12:16:32.493Z,16.10
2023-04-17T12:17:04.326Z,15.90
2023-04-17T12:17:36.122Z,16.00
2023-04-17T12:18:14.076Z,15.80
2023-04-17T12:18:46.288Z,15.80
2023-04-17T12:19:19.842Z,15.90
2023-04-17T12:19:51.786Z,15.90
2023-04-17T12:20:26.874Z,15.90
2023-04-17T12:20:58.706Z,15.90
2023-04-17T12:21:33.372Z,15.90
2023-04-17T12:22:05.445Z,15.90
2023-04-17T12:22:37.203Z,16.20
2023-04-17T12:23:11.559Z,15.90
2023-04-17T12:23:43.449Z,15.90
2023-04-17T12:24:18.107Z,15.90
2023-04-17T12:24:52.710Z,16.00
2023-04-17T12:25:31.837Z,16.00
2023-04-17T12:26:10.007Z,16.00
2023-04-17T12:26:48.893Z,16.00
2023-04-17T12:27:23.460Z,16.00
2023-04-17T12:27:59.313Z,16.00
2023-04-17T12:28:31.120Z,16.00
2023-04-17T12:29:03.363Z,16.10
2023-04-17T12:29:43.835Z,16.00
2023-04-17T12:30:19.590Z,16.00
2023-04-17T12:30:54.418Z,16.00
2023-04-17T12:31:26.293Z,16.00
2023-04-17T12:31:58.185Z,16.00
2023-04-17T12:32:35.825Z,16.00
2023-04-17T12:33:13.343Z,16.00
2023-04-17T12:33:48.009Z,16.00
2023-04-17T12:34:19.820Z,16.00
2023-04-17T12:34:52.366Z,16.00
2023-04-17T12:35:24.216Z,16.00
2023-04-17T12:36:37.947Z,16.00
2023-04-17T12:37:12.496Z,16.40
2023-04-17T12:37:53.739Z,16.30
2023-04-17T12:38:25.681Z,16.10
2023-04-17T12:38:57.520Z,16.10
2023-04-17T12:39:29.310Z,16.00
2023-04-17T12:40:01.114Z,16.00
2023-04-17T12:40:33.008Z,15.80
2023-04-17T12:41:04.963Z,16.00
2023-04-17T12:41:45.822Z,16.00
2023-04-17T12:42:17.792Z,16.10
2023-04-17T12:42:52.781Z,16.10
2023-04-17T12:43:24.717Z,16.10
2023-04-17T12:43:59.996Z,16.00
2023-04-17T12:44:40.883Z,16.10
2023-04-17T12:45:13.817Z,16.10
2023-04-17T12:46:28.240Z,16.20
2023-04-17T12:47:00.273Z,16.20
2023-04-17T12:48:07.223Z,16.20
2023-04-17T12:48:39.078Z,16.20
2023-04-17T12:49:11.059Z,16.20
2023-04-17T12:49:49.062Z,16.20
2023-04-17T12:50:20.927Z,16.20
2023-04-17T12:51:10.695Z,16.20
2023-04-17T12:51:42.507Z,16.20
2023-04-17T12:52:17.227Z,16.20
2023-04-17T12:52:48.966Z,16.20
2023-04-17T12:53:56.300Z,16.20
2023-04-17T12:54:31.032Z,16.20
2023-04-17T12:55:14.066Z,16.20
2023-04-17T12:55:51.481Z,16.20
2023-04-17T12:56:23.908Z,16.20
2023-04-17T12:56:58.407Z,16.20
2023-04-17T12:57:33.244Z,16.20
2023-04-17T12:58:06.545Z,16.80
2023-04-17T12:58:41.322Z,16.20
2023-04-17T13:00:12.146Z,16.30
2023-04-17T13:00:44.297Z,16.20
2023-04-17T13:01:31.157Z,16.20
2023-04-17T13:02:09.692Z,16.30
2023-04-17T13:02:50.224Z,16.30
2023-04-17T13:03:22.164Z,16.30
2023-04-17T13:03:57.300Z,16.30
2023-04-17T13:04:37.529Z,16.30
2023-04-17T13:05:15.365Z,16.20
2023-04-17T13:05:53.544Z,16.30
2023-04-17T13:06:31.655Z,16.70
2023-04-17T13:07:06.030Z,16.30
2023-04-17T13:07:40.645Z,16.30
2023-04-17T13:08:15.142Z,16.60
2023-04-17T13:08:47.045Z,16.30